sensor_id;sensor_type;location;lat;lon;timestamp;pressure;altitude;pressure_sealevel;temperature;humidity
21902;BME280;11115;46.038;14.612;2023-04-05T00:01:19;98636.13;;;1.65;100.00
21902;BME280;11115;46.038;14.612;2023-04-05T00:03:55;98628.84;;;1.88;100.00
21902;BME280;11115;46.038;14.612;2023-04-05T00:06:34;98627.03;;;1.93;100.00
21902;BME280;11115;46.038;14.612;2023-04-05T00:09:12;98614.75;;;1.74;100.00
21902;BME280;11115;46.038;14.612;2023-04-05T00:11:42;98612.72;;;1.52;100.00
21902;BME280;11115;46.038;14.612;2023-04-05T00:14:20;98622.91;;;1.57;100.00
21902;BME280;11115;46.038;14.612;2023-04-05T00:17:16;98627.59;;;1.45;100.00
21902;BME280;11115;46.038;14.612;2023-04-05T00:19:52;98627.03;;;1.43;100.00
21902;BME280;11115;46.038;14.612;2023-04-05T00:22:24;98628.13;;;1.13;100.00
21902;BME280;11115;46.038;14.612;2023-04-05T00:25:04;98626.84;;;1.16;100.00
21902;BME280;11115;46.038;14.612;2023-04-05T00:27:36;98617.22;;;1.13;100.00
21902;BME280;11115;46.038;14.612;2023-04-05T00:30:11;98614.94;;;1.22;100.00
21902;BME280;11115;46.038;14.612;2023-04-05T00:32:47;98592.31;;;1.21;100.00
21902;BME280;11115;46.038;14.612;2023-04-05T00:35:28;98611.41;;;1.72;100.00
21902;BME280;11115;46.038;14.612;2023-04-05T00:38:02;98610.13;;;1.74;100.00
21902;BME280;11115;46.038;14.612;2023-04-05T00:40:35;98607.97;;;1.76;100.00
21902;BME280;11115;46.038;14.612;2023-04-05T00:43:06;98607.94;;;1.93;100.00
21902;BME280;11115;46.038;14.612;2023-04-05T00:45:36;98619.19;;;1.80;100.00
21902;BME280;11115;46.038;14.612;2023-04-05T00:48:10;98610.00;;;1.69;100.00
21902;BME280;11115;46.038;14.612;2023-04-05T00:50:51;98601.31;;;1.72;100.00
21902;BME280;11115;46.038;14.612;2023-04-05T00:53:23;98611.88;;;2.02;100.00
21902;BME280;11115;46.038;14.612;2023-04-05T00:56:00;98617.53;;;1.79;100.00
21902;BME280;11115;46.038;14.612;2023-04-05T00:58:36;98608.34;;;1.68;100.00
21902;BME280;11115;46.038;14.612;2023-04-05T01:01:19;98597.13;;;1.65;100.00
21902;BME280;11115;46.038;14.612;2023-04-05T01:03:59;98599.59;;;1.83;100.00
21902;BME280;11115;46.038;14.612;2023-04-05T01:07:08;98620.16;;;1.91;100.00
21902;BME280;11115;46.038;14.612;2023-04-05T01:10:02;98599.75;;;1.93;100.00
21902;BME280;11115;46.038;14.612;2023-04-05T01:12:38;98610.25;;;1.68;100.00
21902;BME280;11115;46.038;14.612;2023-04-05T01:15:15;98618.63;;;1.78;100.00
21902;BME280;11115;46.038;14.612;2023-04-05T01:17:46;98614.81;;;1.79;100.00
21902;BME280;11115;46.038;14.612;2023-04-05T01:20:17;98611.19;;;1.57;100.00
21902;BME280;11115;46.038;14.612;2023-04-05T01:23:42;98617.34;;;1.52;100.00
21902;BME280;11115;46.038;14.612;2023-04-05T01:38:38;98604.78;;;1.85;100.00
21902;BME280;11115;46.038;14.612;2023-04-05T01:41:12;98612.31;;;1.94;100.00
21902;BME280;11115;46.038;14.612;2023-04-05T01:43:44;98614.81;;;1.79;100.00
21902;BME280;11115;46.038;14.612;2023-04-05T01:46:29;98614.06;;;1.67;100.00
21902;BME280;11115;46.038;14.612;2023-04-05T01:49:04;98618.69;;;1.66;100.00
21902;BME280;11115;46.038;14.612;2023-04-05T01:51:44;98621.16;;;1.85;100.00
21902;BME280;11115;46.038;14.612;2023-04-05T01:54:18;98609.53;;;1.56;100.00
21902;BME280;11115;46.038;14.612;2023-04-05T01:56:49;98608.72;;;1.55;100.00
21902;BME280;11115;46.038;14.612;2023-04-05T01:59:30;98595.16;;;1.60;100.00
21902;BME280;11115;46.038;14.612;2023-04-05T02:02:02;98601.81;;;1.86;100.00
21902;BME280;11115;46.038;14.612;2023-04-05T02:04:35;98602.44;;;1.55;100.00
21902;BME280;11115;46.038;14.612;2023-04-05T02:07:12;98616.97;;;1.60;100.00
21902;BME280;11115;46.038;14.612;2023-04-05T02:09:43;98610.75;;;1.48;100.00
21902;BME280;11115;46.038;14.612;2023-04-05T02:12:15;98581.56;;;1.15;100.00
21902;BME280;11115;46.038;14.612;2023-04-05T02:14:49;98624.31;;;1.14;100.00
21902;BME280;11115;46.038;14.612;2023-04-05T02:17:26;98618.88;;;1.14;100.00
21902;BME280;11115;46.038;14.612;2023-04-05T02:20:00;98625.59;;;1.24;100.00
21902;BME280;11115;46.038;14.612;2023-04-05T02:22:40;98619.25;;;1.35;100.00
21902;BME280;11115;46.038;14.612;2023-04-05T02:25:14;98626.38;;;1.36;100.00
21902;BME280;11115;46.038;14.612;2023-04-05T02:27:43;98623.66;;;1.07;100.00
21902;BME280;11115;46.038;14.612;2023-04-05T02:30:15;98628.72;;;0.87;100.00
21902;BME280;11115;46.038;14.612;2023-04-05T02:32:56;98625.72;;;1.00;100.00
21902;BME280;11115;46.038;14.612;2023-04-05T02:35:33;98629.97;;;0.96;100.00
21902;BME280;11115;46.038;14.612;2023-04-05T02:38:05;98626.25;;;0.85;100.00
21902;BME280;11115;46.038;14.612;2023-04-05T02:40:36;98633.50;;;0.80;100.00
21902;BME280;11115;46.038;14.612;2023-04-05T02:43:23;98628.81;;;0.92;100.00
21902;BME280;11115;46.038;14.612;2023-04-05T02:45:54;98625.78;;;0.77;100.00
21902;BME280;11115;46.038;14.612;2023-04-05T02:48:26;98622.88;;;0.67;100.00
21902;BME280;11115;46.038;14.612;2023-04-05T02:50:59;98620.47;;;0.42;100.00
21902;BME280;11115;46.038;14.612;2023-04-05T02:53:34;98627.00;;;0.69;100.00
21902;BME280;11115;46.038;14.612;2023-04-05T02:56:09;98625.78;;;0.77;100.00
21902;BME280;11115;46.038;14.612;2023-04-05T02:58:53;98633.59;;;0.45;100.00
21902;BME280;11115;46.038;14.612;2023-04-05T03:01:26;98616.03;;;0.52;100.00
21902;BME280;11115;46.038;14.612;2023-04-05T03:04:02;98630.53;;;0.29;100.00
21902;BME280;11115;46.038;14.612;2023-04-05T03:06:35;98624.28;;;0.29;100.00
21902;BME280;11115;46.038;14.612;2023-04-05T03:09:05;98623.06;;;0.37;100.00
21902;BME280;11115;46.038;14.612;2023-04-05T03:11:41;98623.03;;;0.60;100.00
21902;BME280;11115;46.038;14.612;2023-04-05T03:14:11;98624.63;;;0.33;100.00
21902;BME280;11115;46.038;14.612;2023-04-05T03:16:51;98634.72;;;0.20;100.00
21902;BME280;11115;46.038;14.612;2023-04-05T03:19:39;98608.94;;;-0.12;100.00
21902;BME280;11115;46.038;14.612;2023-04-05T03:22:14;98607.03;;;-0.12;100.00
21902;BME280;11115;46.038;14.612;2023-04-05T03:24:55;98620.81;;;0.34;100.00
21902;BME280;11115;46.038;14.612;2023-04-05T03:27:25;98622.50;;;-0.01;100.00
21902;BME280;11115;46.038;14.612;2023-04-05T03:30:15;98623.94;;;-0.10;100.00
21902;BME280;11115;46.038;14.612;2023-04-05T03:33:08;98629.59;;;0.12;100.00
21902;BME280;11115;46.038;14.612;2023-04-05T03:35:42;98632.28;;;0.36;100.00
21902;BME280;11115;46.038;14.612;2023-04-05T03:38:32;98633.88;;;0.20;100.00
21902;BME280;11115;46.038;14.612;2023-04-05T03:41:24;98630.91;;;0.21;100.00
21902;BME280;11115;46.038;14.612;2023-04-05T03:44:00;98632.66;;;0.27;100.00
21902;BME280;11115;46.038;14.612;2023-04-05T03:46:34;98632.34;;;0.01;100.00
21902;BME280;11115;46.038;14.612;2023-04-05T03:49:08;98638.13;;;-0.31;100.00
21902;BME280;11115;46.038;14.612;2023-04-05T03:51:52;98650.16;;;-0.50;100.00
21902;BME280;11115;46.038;14.612;2023-04-05T03:54:25;98642.13;;;-0.45;100.00
21902;BME280;11115;46.038;14.612;2023-04-05T03:57:01;98647.81;;;-0.35;100.00
21902;BME280;11115;46.038;14.612;2023-04-05T03:59:36;98642.03;;;-0.27;100.00
21902;BME280;11115;46.038;14.612;2023-04-05T04:02:19;98645.66;;;-0.45;100.00
21902;BME280;11115;46.038;14.612;2023-04-05T04:04:49;98652.00;;;-0.74;100.00
21902;BME280;11115;46.038;14.612;2023-04-05T04:07:20;98652.72;;;-0.97;100.00
21902;BME280;11115;46.038;14.612;2023-04-05T04:09:56;98650.34;;;-0.64;100.00
21902;BME280;11115;46.038;14.612;2023-04-05T04:12:24;98659.16;;;-0.38;100.00
21902;BME280;11115;46.038;14.612;2023-04-05T04:15:03;98630.94;;;-0.79;100.00
21902;BME280;11115;46.038;14.612;2023-04-05T04:18:01;98653.66;;;-0.62;100.00
21902;BME280;11115;46.038;14.612;2023-04-05T04:21:02;98659.75;;;-0.36;100.00
21902;BME280;11115;46.038;14.612;2023-04-05T04:23:55;98661.06;;;-0.27;100.00
21902;BME280;11115;46.038;14.612;2023-04-05T04:26:47;98635.28;;;-0.48;100.00
21902;BME280;11115;46.038;14.612;2023-04-05T04:29:46;98661.75;;;-0.43;100.00
21902;BME280;11115;46.038;14.612;2023-04-05T04:32:42;98661.69;;;-0.67;100.00
21902;BME280;11115;46.038;14.612;2023-04-05T04:36:06;98662.72;;;-0.26;100.00
21902;BME280;11115;46.038;14.612;2023-04-05T04:39:17;98662.91;;;-0.51;100.00
21902;BME280;11115;46.038;14.612;2023-04-05T04:42:26;98667.31;;;-0.38;100.00
21902;BME280;11115;46.038;14.612;2023-04-05T04:45:26;98671.38;;;-0.59;100.00
21902;BME280;11115;46.038;14.612;2023-04-05T04:48:19;98671.00;;;-0.74;100.00
21902;BME280;11115;46.038;14.612;2023-04-05T04:51:07;98677.88;;;-0.72;100.00
21902;BME280;11115;46.038;14.612;2023-04-05T04:53:40;98677.69;;;-0.88;100.00
21902;BME280;11115;46.038;14.612;2023-04-05T04:56:28;98677.16;;;-0.67;100.00
21902;BME280;11115;46.038;14.612;2023-04-05T04:59:00;98680.84;;;-0.62;100.00
21902;BME280;11115;46.038;14.612;2023-04-05T05:01:39;98676.28;;;-0.79;100.00
21902;BME280;11115;46.038;14.612;2023-04-05T05:04:18;98685.69;;;-0.64;100.00
21902;BME280;11115;46.038;14.612;2023-04-05T05:06:52;98682.06;;;-0.57;100.00
21902;BME280;11115;46.038;14.612;2023-04-05T05:09:34;98667.00;;;-1.02;100.00
21902;BME280;11115;46.038;14.612;2023-04-05T05:12:06;98676.69;;;-0.76;100.00
21902;BME280;11115;46.038;14.612;2023-04-05T05:14:42;98689.81;;;-0.73;100.00
21902;BME280;11115;46.038;14.612;2023-04-05T05:17:12;98694.47;;;-0.80;100.00
21902;BME280;11115;46.038;14.612;2023-04-05T05:19:46;98701.22;;;-0.82;100.00
21902;BME280;11115;46.038;14.612;2023-04-05T05:22:17;98700.13;;;-0.93;100.00
21902;BME280;11115;46.038;14.612;2023-04-05T05:24:47;98703.69;;;-0.81;100.00
21902;BME280;11115;46.038;14.612;2023-04-05T05:27:18;98708.13;;;-0.68;100.00
21902;BME280;11115;46.038;14.612;2023-04-05T05:29:49;98700.69;;;-0.61;100.00
21902;BME280;11115;46.038;14.612;2023-04-05T05:32:20;98701.72;;;-0.32;100.00
21902;BME280;11115;46.038;14.612;2023-04-05T05:34:58;98701.03;;;-0.04;100.00
21902;BME280;11115;46.038;14.612;2023-04-05T05:37:32;98688.47;;;-0.28;100.00
21902;BME280;11115;46.038;14.612;2023-04-05T05:40:04;98706.38;;;0.03;100.00
21902;BME280;11115;46.038;14.612;2023-04-05T05:42:34;98705.22;;;0.22;100.00
21902;BME280;11115;46.038;14.612;2023-04-05T05:45:11;98689.25;;;0.02;100.00
21902;BME280;11115;46.038;14.612;2023-04-05T05:47:41;98710.88;;;0.20;100.00
21902;BME280;11115;46.038;14.612;2023-04-05T05:50:14;98703.63;;;0.38;100.00
21902;BME280;11115;46.038;14.612;2023-04-05T05:52:50;98707.31;;;0.32;100.00
21902;BME280;11115;46.038;14.612;2023-04-05T05:55:22;98709.94;;;0.03;100.00
21902;BME280;11115;46.038;14.612;2023-04-05T05:57:51;98718.31;;;0.48;100.00
21902;BME280;11115;46.038;14.612;2023-04-05T06:00:25;98700.94;;;0.26;100.00
21902;BME280;11115;46.038;14.612;2023-04-05T06:02:57;98713.94;;;0.47;100.00
21902;BME280;11115;46.038;14.612;2023-04-05T06:05:29;98709.09;;;0.49;100.00
21902;BME280;11115;46.038;14.612;2023-04-05T06:08:01;98716.97;;;0.74;100.00
21902;BME280;11115;46.038;14.612;2023-04-05T06:10:34;98709.22;;;0.95;100.00
21902;BME280;11115;46.038;14.612;2023-04-05T06:13:20;98706.22;;;0.79;100.00
21902;BME280;11115;46.038;14.612;2023-04-05T06:15:53;98719.81;;;1.19;100.00
21902;BME280;11115;46.038;14.612;2023-04-05T06:18:29;98692.06;;;0.94;100.00
21902;BME280;11115;46.038;14.612;2023-04-05T06:21:01;98692.75;;;1.01;100.00
21902;BME280;11115;46.038;14.612;2023-04-05T06:23:48;98710.69;;;1.14;100.00
21902;BME280;11115;46.038;14.612;2023-04-05T06:26:24;98710.91;;;1.24;100.00
21902;BME280;11115;46.038;14.612;2023-04-05T06:28:55;98691.09;;;1.29;100.00
21902;BME280;11115;46.038;14.612;2023-04-05T06:31:30;98707.72;;;1.89;100.00
21902;BME280;11115;46.038;14.612;2023-04-05T06:34:02;98706.75;;;1.95;100.00
21902;BME280;11115;46.038;14.612;2023-04-05T06:36:37;98708.16;;;1.98;100.00
21902;BME280;11115;46.038;14.612;2023-04-05T06:39:09;98700.78;;;1.98;100.00
21902;BME280;11115;46.038;14.612;2023-04-05T06:41:49;98701.69;;;2.04;100.00
21902;BME280;11115;46.038;14.612;2023-04-05T06:44:41;98693.19;;;2.00;100.00
21902;BME280;11115;46.038;14.612;2023-04-05T06:47:15;98703.09;;;2.06;100.00
21902;BME280;11115;46.038;14.612;2023-04-05T06:49:50;98642.91;;;1.79;100.00
21902;BME280;11115;46.038;14.612;2023-04-05T06:52:21;98699.38;;;2.12;100.00
21902;BME280;11115;46.038;14.612;2023-04-05T06:54:52;98700.97;;;2.47;100.00
21902;BME280;11115;46.038;14.612;2023-04-05T06:57:37;98700.97;;;2.47;100.00
21902;BME280;11115;46.038;14.612;2023-04-05T07:00:09;98706.63;;;2.24;100.00
21902;BME280;11115;46.038;14.612;2023-04-05T07:02:49;98695.91;;;2.56;100.00
21902;BME280;11115;46.038;14.612;2023-04-05T07:05:24;98704.13;;;2.56;100.00
21902;BME280;11115;46.038;14.612;2023-04-05T07:08:00;98696.28;;;2.42;100.00
21902;BME280;11115;46.038;14.612;2023-04-05T07:10:41;98696.31;;;2.64;100.00
21902;BME280;11115;46.038;14.612;2023-04-05T07:13:16;98696.06;;;2.88;100.00
21902;BME280;11115;46.038;14.612;2023-04-05T07:15:58;98702.44;;;2.93;100.00
21902;BME280;11115;46.038;14.612;2023-04-05T07:18:31;98692.38;;;2.77;100.00
21902;BME280;11115;46.038;14.612;2023-04-05T07:20:59;98688.63;;;3.05;100.00
21902;BME280;11115;46.038;14.612;2023-04-05T07:23:43;98694.44;;;3.09;100.00
21902;BME280;11115;46.038;14.612;2023-04-05T07:26:18;98688.81;;;2.98;100.00
21902;BME280;11115;46.038;14.612;2023-04-05T07:29:17;98681.38;;;3.16;100.00
21902;BME280;11115;46.038;14.612;2023-04-05T07:31:53;98700.34;;;3.27;100.00
21902;BME280;11115;46.038;14.612;2023-04-05T07:34:24;98698.47;;;3.28;100.00
21902;BME280;11115;46.038;14.612;2023-04-05T07:37:04;98702.19;;;3.44;100.00
21902;BME280;11115;46.038;14.612;2023-04-05T07:39:41;98698.47;;;3.55;97.53
21902;BME280;11115;46.038;14.612;2023-04-05T07:42:16;98696.88;;;3.59;96.11
21902;BME280;11115;46.038;14.612;2023-04-05T07:45:01;98695.16;;;3.80;96.64
21902;BME280;11115;46.038;14.612;2023-04-05T07:47:33;98684.84;;;3.87;95.12
21902;BME280;11115;46.038;14.612;2023-04-05T07:50:07;98690.94;;;3.40;89.37
21902;BME280;11115;46.038;14.612;2023-04-05T07:52:37;98688.31;;;3.50;91.52
21902;BME280;11115;46.038;14.612;2023-04-05T07:55:13;98663.38;;;3.47;87.36
21902;BME280;11115;46.038;14.612;2023-04-05T07:57:53;98677.31;;;3.45;87.23
21902;BME280;11115;46.038;14.612;2023-04-05T08:00:27;98682.22;;;3.70;86.44
21902;BME280;11115;46.038;14.612;2023-04-05T08:03:01;98687.94;;;4.01;90.29
21902;BME280;11115;46.038;14.612;2023-04-05T08:05:32;98676.88;;;4.22;89.62
21902;BME280;11115;46.038;14.612;2023-04-05T08:08:04;98673.84;;;4.19;86.94
21902;BME280;11115;46.038;14.612;2023-04-05T08:10:41;98679.28;;;4.14;86.38
21902;BME280;11115;46.038;14.612;2023-04-05T08:13:11;98678.47;;;4.13;84.41
21902;BME280;11115;46.038;14.612;2023-04-05T08:15:45;98665.63;;;4.61;91.56
21902;BME280;11115;46.038;14.612;2023-04-05T08:18:16;98671.16;;;4.66;86.54
21902;BME280;11115;46.038;14.612;2023-04-05T08:20:53;98672.16;;;4.50;80.36
21902;BME280;11115;46.038;14.612;2023-04-05T08:23:24;98666.66;;;4.50;86.75
21902;BME280;11115;46.038;14.612;2023-04-05T08:25:57;98666.94;;;5.06;89.23
21902;BME280;11115;46.038;14.612;2023-04-05T08:28:34;98663.72;;;5.39;100.00
21902;BME280;11115;46.038;14.612;2023-04-05T08:31:06;98663.72;;;5.39;84.59
21902;BME280;11115;46.038;14.612;2023-04-05T08:33:50;98658.28;;;5.44;87.62
21902;BME280;11115;46.038;14.612;2023-04-05T08:36:27;98627.78;;;5.21;78.56
21902;BME280;11115;46.038;14.612;2023-04-05T08:39:10;98655.53;;;5.55;76.25
21902;BME280;11115;46.038;14.612;2023-04-05T08:41:54;98659.91;;;5.56;83.21
21902;BME280;11115;46.038;14.612;2023-04-05T08:44:38;98655.25;;;5.56;76.30
21902;BME280;11115;46.038;14.612;2023-04-05T08:47:09;98646.97;;;5.26;74.13
21902;BME280;11115;46.038;14.612;2023-04-05T08:49:54;98648.47;;;5.99;89.88
21902;BME280;11115;46.038;14.612;2023-04-05T08:52:25;98645.97;;;6.23;83.29
21902;BME280;11115;46.038;14.612;2023-04-05T08:55:11;98642.88;;;6.50;96.49
21902;BME280;11115;46.038;14.612;2023-04-05T08:57:45;98640.75;;;6.27;73.56
21902;BME280;11115;46.038;14.612;2023-04-05T09:00:19;98619.59;;;6.12;73.71
21902;BME280;11115;46.038;14.612;2023-04-05T09:02:55;98636.34;;;6.16;71.23
21902;BME280;11115;46.038;14.612;2023-04-05T09:05:36;98628.91;;;6.31;71.51
21902;BME280;11115;46.038;14.612;2023-04-05T09:08:07;98614.03;;;6.58;79.86
21902;BME280;11115;46.038;14.612;2023-04-05T09:10:39;98629.97;;;6.56;67.19
21902;BME280;11115;46.038;14.612;2023-04-05T09:13:11;98629.16;;;6.50;66.47
21902;BME280;11115;46.038;14.612;2023-04-05T09:15:45;98603.22;;;6.72;68.66
21902;BME280;11115;46.038;14.612;2023-04-05T09:18:25;98629.38;;;7.28;89.16
21902;BME280;11115;46.038;14.612;2023-04-05T09:21:05;98620.28;;;7.33;73.15
21902;BME280;11115;46.038;14.612;2023-04-05T09:23:51;98609.03;;;7.24;72.53
21902;BME280;11115;46.038;14.612;2023-04-05T09:26:27;98609.09;;;7.58;73.76
21902;BME280;11115;46.038;14.612;2023-04-05T09:28:59;98590.00;;;6.84;61.40
21902;BME280;11115;46.038;14.612;2023-04-05T09:31:35;98610.31;;;6.88;59.29
21902;BME280;11115;46.038;14.612;2023-04-05T09:34:19;98599.78;;;7.05;59.33
21902;BME280;11115;46.038;14.612;2023-04-05T09:36:54;98591.97;;;6.73;54.96
21902;BME280;11115;46.038;14.612;2023-04-05T09:39:28;98597.53;;;7.17;59.51
21902;BME280;11115;46.038;14.612;2023-04-05T09:42:15;98597.06;;;7.83;66.81
21902;BME280;11115;46.038;14.612;2023-04-05T09:45:00;98588.63;;;7.70;61.61
21902;BME280;11115;46.038;14.612;2023-04-05T09:47:55;98595.69;;;8.15;63.01
21902;BME280;11115;46.038;14.612;2023-04-05T09:50:26;98580.41;;;7.99;64.60
21902;BME280;11115;46.038;14.612;2023-04-05T09:53:13;98590.72;;;7.83;67.03
21902;BME280;11115;46.038;14.612;2023-04-05T09:55:51;98584.56;;;7.62;56.19
21902;BME280;11115;46.038;14.612;2023-04-05T09:58:31;98577.97;;;8.74;72.58
21902;BME280;11115;46.038;14.612;2023-04-05T10:01:06;98570.47;;;8.56;58.65
21902;BME280;11115;46.038;14.612;2023-04-05T10:03:47;98580.31;;;8.38;54.96
21902;BME280;11115;46.038;14.612;2023-04-05T10:06:21;98571.88;;;8.53;61.66
21902;BME280;11115;46.038;14.612;2023-04-05T10:08:50;98564.81;;;8.66;63.59
21902;BME280;11115;46.038;14.612;2023-04-05T10:11:35;98563.03;;;9.18;59.93
21902;BME280;11115;46.038;14.612;2023-04-05T10:14:07;98570.16;;;9.00;52.72
21902;BME280;11115;46.038;14.612;2023-04-05T10:17:11;98561.69;;;8.96;53.94
21902;BME280;11115;46.038;14.612;2023-04-05T10:20:15;98556.00;;;9.44;55.26
21902;BME280;11115;46.038;14.612;2023-04-05T10:26:05;98550.56;;;10.23;63.09
21902;BME280;11115;46.038;14.612;2023-04-05T10:28:42;98546.47;;;10.01;64.01
21902;BME280;11115;46.038;14.612;2023-04-05T10:31:34;98539.81;;;9.56;53.38
21902;BME280;11115;46.038;14.612;2023-04-05T10:34:15;98535.41;;;9.88;49.43
21902;BME280;11115;46.038;14.612;2023-04-05T10:37:00;98531.00;;;8.79;46.29
21902;BME280;11115;46.038;14.612;2023-04-05T10:39:41;98521.41;;;9.33;53.51
21902;BME280;11115;46.038;14.612;2023-04-05T10:42:35;98528.84;;;10.30;57.15
21902;BME280;11115;46.038;14.612;2023-04-05T10:45:12;98524.88;;;10.22;57.82
21902;BME280;11115;46.038;14.612;2023-04-05T10:48:25;98528.28;;;9.68;49.81
21902;BME280;11115;46.038;14.612;2023-04-05T10:50:59;98525.53;;;9.68;49.77
21902;BME280;11115;46.038;14.612;2023-04-05T10:53:35;98516.53;;;9.76;47.16
21902;BME280;11115;46.038;14.612;2023-04-05T10:56:04;98494.13;;;9.78;50.73
21902;BME280;11115;46.038;14.612;2023-04-05T10:58:35;98495.88;;;10.47;50.58
21902;BME280;11115;46.038;14.612;2023-04-05T11:01:18;98498.97;;;9.86;45.33
21902;BME280;11115;46.038;14.612;2023-04-05T11:03:51;98484.97;;;9.63;47.46
21902;BME280;11115;46.038;14.612;2023-04-05T11:06:32;98501.25;;;10.11;47.70
21902;BME280;11115;46.038;14.612;2023-04-05T11:09:16;98487.88;;;10.59;55.02
21902;BME280;11115;46.038;14.612;2023-04-05T11:11:51;98488.78;;;10.82;56.09
21902;BME280;11115;46.038;14.612;2023-04-05T11:16:54;98497.53;;;10.98;45.55
21902;BME280;11115;46.038;14.612;2023-04-05T11:22:25;98489.63;;;11.86;54.32
21902;BME280;11115;46.038;14.612;2023-04-05T11:25:00;98487.03;;;11.90;49.36
21902;BME280;11115;46.038;14.612;2023-04-05T11:27:34;98499.81;;;11.54;46.27
21902;BME280;11115;46.038;14.612;2023-04-05T11:30:06;98482.97;;;11.73;48.65
21902;BME280;11115;46.038;14.612;2023-04-05T11:32:40;98474.13;;;11.85;52.48
21902;BME280;11115;46.038;14.612;2023-04-05T11:35:19;98475.63;;;11.69;52.77
21902;BME280;11115;46.038;14.612;2023-04-05T11:38:06;98468.16;;;11.47;52.78
21902;BME280;11115;46.038;14.612;2023-04-05T11:40:40;98463.75;;;11.46;42.76
21902;BME280;11115;46.038;14.612;2023-04-05T11:43:14;98474.38;;;11.52;47.10
21902;BME280;11115;46.038;14.612;2023-04-05T11:45:42;98467.03;;;12.01;51.53
21902;BME280;11115;46.038;14.612;2023-04-05T11:48:13;98441.63;;;12.08;44.48
21902;BME280;11115;46.038;14.612;2023-04-05T11:50:47;98448.03;;;12.17;48.71
21902;BME280;11115;46.038;14.612;2023-04-05T11:53:20;98460.09;;;11.81;47.30
21902;BME280;11115;46.038;14.612;2023-04-05T11:56:10;98439.00;;;12.51;47.69
21902;BME280;11115;46.038;14.612;2023-04-05T11:58:43;98446.09;;;12.74;50.10
21902;BME280;11115;46.038;14.612;2023-04-05T12:01:22;98438.91;;;12.82;41.37
21902;BME280;11115;46.038;14.612;2023-04-05T12:03:55;98447.91;;;13.14;41.08
21902;BME280;11115;46.038;14.612;2023-04-05T12:06:29;98446.44;;;12.99;40.62
21902;BME280;11115;46.038;14.612;2023-04-05T12:09:05;98436.47;;;13.50;44.30
21902;BME280;11115;46.038;14.612;2023-04-05T12:11:36;98442.94;;;13.88;44.60
21902;BME280;11115;46.038;14.612;2023-04-05T12:14:08;98441.22;;;13.41;43.80
21902;BME280;11115;46.038;14.612;2023-04-05T12:16:47;98431.56;;;13.29;39.26
21902;BME280;11115;46.038;14.612;2023-04-05T12:19:28;98427.66;;;13.13;36.10
21902;BME280;11115;46.038;14.612;2023-04-05T12:21:58;98431.38;;;13.69;36.30
21902;BME280;11115;46.038;14.612;2023-04-05T12:24:29;98426.34;;;14.09;41.82
21902;BME280;11115;46.038;14.612;2023-04-05T12:27:06;98417.31;;;13.65;34.75
21902;BME280;11115;46.038;14.612;2023-04-05T12:32:47;98426.22;;;14.65;35.43
21902;BME280;11115;46.038;14.612;2023-04-05T12:35:33;98422.81;;;13.83;35.90
21902;BME280;11115;46.038;14.612;2023-04-05T12:38:06;98420.44;;;15.53;35.66
21902;BME280;11115;46.038;14.612;2023-04-05T12:40:40;98422.47;;;19.79;31.71
21902;BME280;11115;46.038;14.612;2023-04-05T12:43:17;98426.78;;;20.87;30.12
21902;BME280;11115;46.038;14.612;2023-04-05T12:46:01;98411.09;;;20.86;27.53
21902;BME280;11115;46.038;14.612;2023-04-05T12:48:41;98410.78;;;17.74;32.16
21902;BME280;11115;46.038;14.612;2023-04-05T12:51:18;98407.84;;;16.13;34.93
21902;BME280;11115;46.038;14.612;2023-04-05T12:53:49;98422.66;;;15.81;33.02
21902;BME280;11115;46.038;14.612;2023-04-05T12:56:22;98399.47;;;14.13;30.27
21902;BME280;11115;46.038;14.612;2023-04-05T12:58:54;98400.53;;;14.68;32.08
21902;BME280;11115;46.038;14.612;2023-04-05T13:01:25;98401.13;;;15.69;31.98
21902;BME280;11115;46.038;14.612;2023-04-05T13:04:05;98394.91;;;16.57;30.95
21902;BME280;11115;46.038;14.612;2023-04-05T13:06:44;98392.25;;;16.49;34.94
21902;BME280;11115;46.038;14.612;2023-04-05T13:09:22;98381.31;;;17.20;32.55
21902;BME280;11115;46.038;14.612;2023-04-05T13:11:53;98395.63;;;16.79;30.88
21902;BME280;11115;46.038;14.612;2023-04-05T13:14:22;98391.34;;;16.45;29.41
21902;BME280;11115;46.038;14.612;2023-04-05T13:16:53;98363.44;;;18.12;30.88
21902;BME280;11115;46.038;14.612;2023-04-05T13:19:36;98371.56;;;16.13;28.59
21902;BME280;11115;46.038;14.612;2023-04-05T13:22:13;98378.41;;;17.45;32.05
21902;BME280;11115;46.038;14.612;2023-04-05T13:24:44;98375.09;;;19.16;26.91
21902;BME280;11115;46.038;14.612;2023-04-05T13:27:19;98378.09;;;19.27;25.53
21902;BME280;11115;46.038;14.612;2023-04-05T13:29:59;98376.19;;;20.87;26.56
21902;BME280;11115;46.038;14.612;2023-04-05T13:32:33;98381.72;;;22.11;25.42
21902;BME280;11115;46.038;14.612;2023-04-05T13:35:25;98364.28;;;20.22;25.18
21902;BME280;11115;46.038;14.612;2023-04-05T13:37:55;98379.53;;;19.56;25.38
21902;BME280;11115;46.038;14.612;2023-04-05T13:40:31;98363.00;;;18.77;24.74
21902;BME280;11115;46.038;14.612;2023-04-05T13:43:02;98367.91;;;20.72;26.77
21902;BME280;11115;46.038;14.612;2023-04-05T13:45:34;98366.00;;;20.79;22.74
21902;BME280;11115;46.038;14.612;2023-04-05T13:48:09;98353.75;;;23.78;22.81
21902;BME280;11115;46.038;14.612;2023-04-05T13:50:41;98364.28;;;24.23;21.47
21902;BME280;11115;46.038;14.612;2023-04-05T13:53:13;98344.75;;;19.83;23.06
21902;BME280;11115;46.038;14.612;2023-04-05T13:55:46;98362.19;;;22.87;22.88
21902;BME280;11115;46.038;14.612;2023-04-05T13:58:20;98357.31;;;22.29;21.45
21902;BME280;11115;46.038;14.612;2023-04-05T14:00:53;98361.88;;;24.11;22.28
21902;BME280;11115;46.038;14.612;2023-04-05T14:03:27;98358.25;;;24.14;21.42
21902;BME280;11115;46.038;14.612;2023-04-05T14:05:58;98352.50;;;23.57;20.22
21902;BME280;11115;46.038;14.612;2023-04-05T14:08:29;98356.97;;;23.83;23.35